createdAt,value
2023-09-04T00:01:58.724Z,32.40
2023-09-04T00:04:26.666Z,32.30
2023-09-04T00:06:54.610Z,36.40
2023-09-04T00:09:23.662Z,34.50
2023-09-04T00:11:51.484Z,33.20
2023-09-04T00:14:19.957Z,32.60
2023-09-04T00:16:47.733Z,33.70
2023-09-04T00:19:15.536Z,33.70
2023-09-04T00:21:43.391Z,30.30
2023-09-04T00:24:11.146Z,32.80
2023-09-04T00:26:39.212Z,29.60
2023-09-04T00:29:06.999Z,35.50
2023-09-04T00:31:34.760Z,32.40
2023-09-04T00:34:02.709Z,36.70
2023-09-04T00:36:30.617Z,32.40
2023-09-04T00:38:58.390Z,35.80
2023-09-04T00:41:26.253Z,32.00
2023-09-04T00:43:54.094Z,37.10
2023-09-04T00:46:22.406Z,35.70
2023-09-04T00:48:51.102Z,35.90
2023-09-04T00:51:19.393Z,34.90
2023-09-04T00:53:48.913Z,35.30
2023-09-04T00:56:17.256Z,34.20
2023-09-04T00:58:45.207Z,32.60
2023-09-04T01:01:13.372Z,32.60
2023-09-04T01:03:42.253Z,35.60
2023-09-04T01:06:10.133Z,36.10
2023-09-04T01:08:38.600Z,37.00
2023-09-04T01:11:33.752Z,35.40
2023-09-04T01:14:11.409Z,37.90
2023-09-04T01:16:40.836Z,36.10
2023-09-04T01:19:12.008Z,35.80
2023-09-04T01:21:40.749Z,36.00
2023-09-04T01:24:10.173Z,33.90
2023-09-04T01:26:46.950Z,33.90
2023-09-04T01:29:29.611Z,35.60
2023-09-04T01:32:04.282Z,34.60
2023-09-04T01:34:37.479Z,36.80
2023-09-04T01:37:05.800Z,38.10
2023-09-04T01:39:34.303Z,35.40
2023-09-04T01:42:02.061Z,34.00
2023-09-04T01:44:30.278Z,41.30
2023-09-04T01:46:58.141Z,35.40
2023-09-04T01:49:25.936Z,36.20
2023-09-04T01:51:54.782Z,38.50
2023-09-04T01:54:22.912Z,34.70
2023-09-04T01:56:50.736Z,39.40
2023-09-04T01:59:18.890Z,39.50
2023-09-04T02:01:46.639Z,35.60
2023-09-04T02:04:14.702Z,38.40
2023-09-04T02:06:42.667Z,40.00
2023-09-04T02:09:10.414Z,40.10
2023-09-04T02:11:38.200Z,37.10
2023-09-04T02:14:06.027Z,35.30
2023-09-04T02:16:33.964Z,37.40
2023-09-04T02:19:02.519Z,40.20
2023-09-04T02:21:30.327Z,37.10
2023-09-04T02:23:58.292Z,41.30
2023-09-04T02:26:26.083Z,38.70
2023-09-04T02:28:53.940Z,36.90
2023-09-04T02:31:21.723Z,38.50
2023-09-04T02:33:49.580Z,39.90
2023-09-04T02:36:17.351Z,40.10
2023-09-04T02:38:45.246Z,40.40
2023-09-04T02:41:13.531Z,40.90
2023-09-04T02:43:42.371Z,43.20
2023-09-04T02:46:10.242Z,42.40
2023-09-04T02:48:38.020Z,39.60
2023-09-04T02:51:05.797Z,39.20
2023-09-04T02:53:34.144Z,37.70
2023-09-04T02:56:02.123Z,38.00
2023-09-04T02:58:29.962Z,42.10
2023-09-04T03:00:58.628Z,40.10
2023-09-04T03:03:26.456Z,42.10
2023-09-04T03:05:54.392Z,42.50
2023-09-04T03:08:22.619Z,42.50
2023-09-04T03:10:51.016Z,42.80
2023-09-04T03:13:18.823Z,39.80
2023-09-04T03:15:46.675Z,42.40
2023-09-04T03:18:14.567Z,44.00
2023-09-04T03:20:43.827Z,41.00
2023-09-04T03:25:58.276Z,43.70
2023-09-04T03:28:26.212Z,41.60
2023-09-04T03:30:54.597Z,43.40
2023-09-04T03:33:23.968Z,44.20
2023-09-04T03:35:51.762Z,43.80
2023-09-04T03:38:20.566Z,47.00
2023-09-04T03:40:48.317Z,44.90
2023-09-04T03:43:16.469Z,39.30
2023-09-04T03:45:44.235Z,45.10
2023-09-04T03:48:12.022Z,43.20
2023-09-04T03:50:40.384Z,44.70
2023-09-04T03:53:08.136Z,44.10
2023-09-04T03:55:35.895Z,41.20
2023-09-04T03:58:04.730Z,44.20
2023-09-04T04:00:32.634Z,40.60
2023-09-04T04:03:03.569Z,40.60
2023-09-04T04:05:31.471Z,41.40
2023-09-04T04:07:59.282Z,45.10
2023-09-04T04:10:27.092Z,42.80
2023-09-04T04:12:55.272Z,44.10
2023-09-04T04:15:23.189Z,43.00
2023-09-04T04:17:51.211Z,41.20
2023-09-04T04:20:19.355Z,40.70
2023-09-04T04:22:47.462Z,45.20
2023-09-04T04:25:15.756Z,41.50
2023-09-04T04:27:45.530Z,45.40
2023-09-04T04:30:14.088Z,43.60
2023-09-04T04:32:42.042Z,43.50
2023-09-04T04:35:10.138Z,40.70
2023-09-04T04:37:38.496Z,45.50
2023-09-04T04:40:09.120Z,44.70
2023-09-04T04:42:38.229Z,42.50
2023-09-04T04:45:08.585Z,45.90
2023-09-04T04:47:36.637Z,42.30
2023-09-04T04:50:06.362Z,48.00
2023-09-04T04:52:35.371Z,41.00
2023-09-04T04:55:03.963Z,43.50
2023-09-04T04:57:34.663Z,43.80
2023-09-04T05:00:08.179Z,44.60
2023-09-04T05:02:36.490Z,50.30
2023-09-04T05:05:05.465Z,45.00
2023-09-04T05:07:33.563Z,42.70
2023-09-04T05:10:01.833Z,45.30
2023-09-04T05:12:29.795Z,49.10
2023-09-04T05:14:57.647Z,50.00
2023-09-04T05:17:25.541Z,48.30
2023-09-04T05:19:53.350Z,45.20
2023-09-04T05:22:21.191Z,50.70
2023-09-04T05:24:49.473Z,45.40
2023-09-04T05:27:21.517Z,47.30
2023-09-04T05:29:49.528Z,51.60
2023-09-04T05:32:17.286Z,48.00
2023-09-04T05:34:45.148Z,52.60
2023-09-04T05:37:13.690Z,49.40
2023-09-04T05:39:41.512Z,48.60
2023-09-04T05:42:09.252Z,49.30
2023-09-04T05:44:37.068Z,48.30
2023-09-04T05:47:05.320Z,51.60
2023-09-04T05:49:33.101Z,49.80
2023-09-04T05:52:00.896Z,48.10
2023-09-04T05:54:29.217Z,49.20
2023-09-04T05:56:56.930Z,53.70
2023-09-04T05:59:25.004Z,48.20
2023-09-04T06:01:52.785Z,48.50
2023-09-04T06:04:22.632Z,46.70
2023-09-04T06:06:53.513Z,52.30
2023-09-04T06:09:21.325Z,48.10
2023-09-04T06:11:49.090Z,49.80
2023-09-04T06:14:16.880Z,48.20
2023-09-04T06:16:44.687Z,48.80
2023-09-04T06:19:12.443Z,47.50
2023-09-04T06:21:40.229Z,49.10
2023-09-04T06:24:07.973Z,48.00
2023-09-04T06:26:35.722Z,42.70
2023-09-04T06:29:03.592Z,45.90
2023-09-04T06:31:32.186Z,47.80
2023-09-04T06:34:00.216Z,46.50
2023-09-04T06:36:28.048Z,46.20
2023-09-04T06:38:56.073Z,45.90
2023-09-04T06:41:25.134Z,48.10
2023-09-04T06:43:52.972Z,48.40
2023-09-04T06:46:20.742Z,47.20
2023-09-04T06:48:48.621Z,47.90
2023-09-04T06:51:17.453Z,47.60
2023-09-04T06:53:46.188Z,48.40
2023-09-04T06:56:14.161Z,48.70
2023-09-04T06:58:42.118Z,45.40
2023-09-04T07:01:10.027Z,51.10
2023-09-04T07:03:37.865Z,50.80
2023-09-04T07:06:05.836Z,44.90
2023-09-04T07:08:33.700Z,50.50
2023-09-04T07:11:01.691Z,52.40
2023-09-04T07:13:29.786Z,55.00
2023-09-04T07:15:57.622Z,53.20
2023-09-04T07:18:25.720Z,52.80
2023-09-04T07:20:53.558Z,51.80
2023-09-04T07:23:29.771Z,52.90
2023-09-04T07:25:58.449Z,54.00
2023-09-04T07:28:26.632Z,50.40
2023-09-04T07:31:19.883Z,52.70
2023-09-04T07:33:49.324Z,50.70
2023-09-04T07:36:18.398Z,49.90
2023-09-04T07:38:47.678Z,50.40
2023-09-04T07:41:15.461Z,50.30
2023-09-04T07:43:43.264Z,50.40
2023-09-04T07:46:11.112Z,50.60
2023-09-04T07:48:39.810Z,49.90
2023-09-04T07:51:23.467Z,51.10
2023-09-04T07:53:55.758Z,50.40
2023-09-04T07:56:25.128Z,46.90
2023-09-04T07:58:54.247Z,48.60
2023-09-04T08:01:22.366Z,47.10
2023-09-04T08:03:50.251Z,43.50
2023-09-04T08:06:18.114Z,45.70
2023-09-04T08:08:45.857Z,45.60
2023-09-04T08:11:13.731Z,41.00
2023-09-04T08:13:41.508Z,40.60
2023-09-04T08:16:10.198Z,41.10
2023-09-04T08:18:38.160Z,39.90
2023-09-04T08:21:05.906Z,45.30
2023-09-04T08:23:33.647Z,41.50
2023-09-04T08:26:03.687Z,40.20
2023-09-04T08:28:31.488Z,41.80
2023-09-04T08:30:59.348Z,36.20
2023-09-04T08:33:27.492Z,36.70
2023-09-04T08:35:56.432Z,35.60
2023-09-04T08:38:24.246Z,31.20
2023-09-04T08:40:52.212Z,32.60
2023-09-04T08:43:20.313Z,32.90
2023-09-04T08:45:48.822Z,31.60
2023-09-04T08:48:21.487Z,29.80
2023-09-04T08:50:50.620Z,28.00
2023-09-04T08:53:18.680Z,27.10
2023-09-04T08:55:46.428Z,24.40
2023-09-04T08:58:15.520Z,25.20
2023-09-04T09:00:48.131Z,23.70
2023-09-04T09:03:17.877Z,22.70
2023-09-04T09:05:48.665Z,19.80
2023-09-04T09:08:17.741Z,18.80
2023-09-04T09:10:47.651Z,18.10
2023-09-04T09:13:16.196Z,16.20
2023-09-04T09:15:44.209Z,16.40
2023-09-04T09:18:12.094Z,15.10
2023-09-04T09:20:43.367Z,15.50
2023-09-04T09:23:11.242Z,13.20
2023-09-04T09:25:40.378Z,12.10
2023-09-04T09:28:09.558Z,11.10
2023-09-04T09:30:41.725Z,10.00
2023-09-04T09:33:17.190Z,11.60
2023-09-04T09:35:45.459Z,13.30
2023-09-04T09:38:13.281Z,9.30
2023-09-04T09:40:41.072Z,9.70
2023-09-04T09:43:09.596Z,9.90
2023-09-04T09:45:37.997Z,7.70
2023-09-04T09:48:08.526Z,7.70
2023-09-04T09:50:38.657Z,9.30
2023-09-04T09:53:06.560Z,10.80
2023-09-04T09:55:36.089Z,8.50
2023-09-04T09:58:05.399Z,8.00
2023-09-04T10:00:35.474Z,7.20
2023-09-04T10:03:04.037Z,6.90
2023-09-04T10:05:33.195Z,7.50
2023-09-04T10:08:03.887Z,8.50
2023-09-04T10:10:41.132Z,7.70
2023-09-04T10:13:20.326Z,6.90
2023-09-04T10:15:48.914Z,6.70
2023-09-04T10:18:33.506Z,6.30
2023-09-04T10:21:06.592Z,5.60
2023-09-04T10:23:46.412Z,5.80
2023-09-04T10:26:27.435Z,5.00
2023-09-04T10:29:18.742Z,5.20
2023-09-04T10:31:49.030Z,5.90
2023-09-04T10:34:17.757Z,5.70
2023-09-04T10:36:45.724Z,4.90
2023-09-04T10:39:14.392Z,5.50
2023-09-04T10:41:42.576Z,6.60
2023-09-04T10:44:13.064Z,5.10
2023-09-04T10:46:59.597Z,6.30
2023-09-04T10:49:35.100Z,5.30
2023-09-04T10:52:03.207Z,5.60
2023-09-04T10:54:30.945Z,4.70
2023-09-04T10:57:19.041Z,5.90
2023-09-04T11:00:05.460Z,4.50
2023-09-04T11:02:35.424Z,4.30
2023-09-04T11:05:07.987Z,4.60
2023-09-04T11:07:36.401Z,4.70
2023-09-04T11:10:34.289Z,4.60
2023-09-04T11:13:02.226Z,4.20
2023-09-04T11:15:33.185Z,3.60
2023-09-04T11:18:01.036Z,4.50
2023-09-04T11:20:29.201Z,4.20
2023-09-04T11:22:57.975Z,4.50
2023-09-04T11:25:25.904Z,3.90
2023-09-04T11:27:53.845Z,4.10
2023-09-04T11:30:30.195Z,5.90
2023-09-04T11:33:01.000Z,4.60
2023-09-04T11:35:29.504Z,3.40
2023-09-04T11:38:01.348Z,3.70
2023-09-04T11:40:33.427Z,4.30
2023-09-04T11:43:01.207Z,3.70
2023-09-04T11:45:29.340Z,3.30
2023-09-04T11:47:57.197Z,4.30
2023-09-04T11:50:25.057Z,4.30
2023-09-04T11:52:53.722Z,4.50
2023-09-04T11:55:24.256Z,4.30
2023-09-04T11:57:52.051Z,4.50
2023-09-04T12:00:19.896Z,4.40
2023-09-04T12:02:47.741Z,3.80
2023-09-04T12:05:15.726Z,4.60
2023-09-04T12:07:43.673Z,3.50
2023-09-04T12:10:11.977Z,4.10
2023-09-04T12:12:40.219Z,3.40
2023-09-04T12:15:08.289Z,3.80
2023-09-04T12:17:36.251Z,3.20
2023-09-04T12:20:07.024Z,3.70
2023-09-04T12:22:34.912Z,3.60
2023-09-04T12:25:11.692Z,4.60
2023-09-04T12:27:42.757Z,4.30
2023-09-04T12:30:12.404Z,3.40
2023-09-04T12:32:40.418Z,5.20
2023-09-04T12:35:10.318Z,4.50
2023-09-04T12:37:38.380Z,4.90
2023-09-04T12:40:09.569Z,3.20
2023-09-04T12:42:39.301Z,4.00
2023-09-04T12:45:08.524Z,3.70
2023-09-04T12:47:37.026Z,3.70
2023-09-04T12:50:05.809Z,4.30
2023-09-04T12:52:35.098Z,2.90
2023-09-04T12:55:04.290Z,3.70
2023-09-04T12:57:32.093Z,4.10
2023-09-04T12:59:59.826Z,3.20
2023-09-04T13:02:27.662Z,3.30
2023-09-04T13:04:55.699Z,3.40
2023-09-04T13:07:25.121Z,5.40
2023-09-04T13:09:52.958Z,4.00
2023-09-04T13:12:21.001Z,5.40
2023-09-04T13:14:48.776Z,5.40
2023-09-04T13:17:16.551Z,4.10
2023-09-04T13:19:44.422Z,3.80
2023-09-04T13:22:12.300Z,5.30
2023-09-04T13:24:40.120Z,3.80
2023-09-04T13:27:10.204Z,5.10
2023-09-04T13:29:37.978Z,2.80
2023-09-04T13:32:05.998Z,3.10
2023-09-04T13:34:33.768Z,3.00
2023-09-04T13:37:01.513Z,3.10
2023-09-04T13:39:29.404Z,3.20
2023-09-04T13:41:57.303Z,3.40
2023-09-04T13:44:26.528Z,3.80
2023-09-04T13:46:54.486Z,4.80
2023-09-04T13:49:22.364Z,4.90
2023-09-04T13:51:50.146Z,4.50
2023-09-04T13:54:18.230Z,4.20
2023-09-04T13:56:46.248Z,4.20
2023-09-04T13:59:13.992Z,4.30
2023-09-04T14:01:43.655Z,3.90
2023-09-04T14:04:11.669Z,4.70
2023-09-04T14:06:39.586Z,3.90
2023-09-04T14:09:07.340Z,4.50
2023-09-04T14:11:35.661Z,4.10
2023-09-04T14:14:03.537Z,4.40
2023-09-04T14:16:31.403Z,4.60
2023-09-04T14:19:04.550Z,4.70
2023-09-04T14:21:35.990Z,4.20
2023-09-04T14:24:03.982Z,4.30
2023-09-04T14:26:31.777Z,3.90
2023-09-04T14:28:59.612Z,5.00
2023-09-04T14:31:30.379Z,5.10
2023-09-04T14:33:58.304Z,5.70
2023-09-04T14:36:26.105Z,5.30
2023-09-04T14:38:54.054Z,4.90
2023-09-04T14:41:32.807Z,4.50
2023-09-04T14:44:00.994Z,3.90
2023-09-04T14:46:31.702Z,4.40
2023-09-04T14:51:27.362Z,4.90
2023-09-04T14:53:55.916Z,5.70
2023-09-04T14:56:28.893Z,5.80
2023-09-04T14:58:58.402Z,4.60
2023-09-04T15:01:26.256Z,5.40
2023-09-04T15:03:54.166Z,5.30
2023-09-04T15:06:21.952Z,4.60
2023-09-04T15:08:50.367Z,5.00
2023-09-04T15:11:18.186Z,5.70
2023-09-04T15:13:46.239Z,5.60
2023-09-04T15:16:14.343Z,6.10
2023-09-04T15:18:43.196Z,6.30
2023-09-04T15:21:11.206Z,5.90
2023-09-04T15:23:39.160Z,5.10
2023-09-04T15:26:07.006Z,6.60
2023-09-04T15:28:34.899Z,5.50
2023-09-04T15:31:02.851Z,7.00
2023-09-04T15:33:30.755Z,6.00
2023-09-04T15:36:00.849Z,6.20
2023-09-04T15:38:30.776Z,6.30
2023-09-04T15:40:58.693Z,6.10
2023-09-04T15:43:26.532Z,6.50
2023-09-04T15:45:55.022Z,5.60
2023-09-04T15:48:23.158Z,6.40
2023-09-04T15:50:51.523Z,5.40
2023-09-04T15:53:24.506Z,5.60
2023-09-04T15:55:56.489Z,7.00
2023-09-04T15:58:26.609Z,6.20
2023-09-04T16:00:54.811Z,5.80
2023-09-04T16:03:22.870Z,5.60
2023-09-04T16:05:50.706Z,6.80
2023-09-04T16:08:19.382Z,7.00
2023-09-04T16:10:49.040Z,5.90
2023-09-04T16:13:25.333Z,5.20
2023-09-04T16:15:55.608Z,6.50
2023-09-04T16:18:24.214Z,8.60
2023-09-04T16:20:52.515Z,5.90
2023-09-04T16:23:21.400Z,6.70
2023-09-04T16:25:58.926Z,6.50
2023-09-04T16:28:27.843Z,12.30
2023-09-04T16:30:57.093Z,9.50
2023-09-04T16:33:27.858Z,24.90
2023-09-04T16:35:55.903Z,5.20
2023-09-04T16:38:24.681Z,6.50
2023-09-04T16:40:52.746Z,23.10
2023-09-04T16:43:20.811Z,4.90
2023-09-04T16:45:48.716Z,4.90
2023-09-04T16:48:16.465Z,4.80
2023-09-04T16:50:44.360Z,4.70
2023-09-04T16:53:12.163Z,4.00
2023-09-04T16:55:40.010Z,3.50
2023-09-04T16:58:07.867Z,5.90
2023-09-04T17:00:36.506Z,4.80
2023-09-04T17:03:04.838Z,3.80
2023-09-04T17:05:32.797Z,3.80
2023-09-04T17:08:00.535Z,5.00
2023-09-04T17:10:28.362Z,4.20
2023-09-04T17:12:56.290Z,4.00
2023-09-04T17:15:24.122Z,4.00
2023-09-04T17:17:51.973Z,7.50
2023-09-04T17:20:19.842Z,6.30
2023-09-04T17:22:47.645Z,3.70
2023-09-04T17:25:15.545Z,5.60
2023-09-04T17:27:43.377Z,4.10
2023-09-04T17:30:11.542Z,4.50
2023-09-04T17:32:39.631Z,5.50
2023-09-04T17:35:11.563Z,4.50
2023-09-04T17:37:39.559Z,4.60
2023-09-04T17:40:08.925Z,4.50
2023-09-04T17:42:36.679Z,6.30
2023-09-04T17:45:05.232Z,5.80
2023-09-04T17:47:33.760Z,6.20
2023-09-04T17:50:01.647Z,4.20
2023-09-04T17:52:32.378Z,3.60
2023-09-04T17:55:00.156Z,4.10
2023-09-04T17:57:28.336Z,4.30
2023-09-04T17:59:56.149Z,4.40
2023-09-04T18:02:23.999Z,4.50
2023-09-04T18:04:52.092Z,4.50
2023-09-04T18:07:19.883Z,3.80
2023-09-04T18:09:47.670Z,3.90
2023-09-04T18:12:15.397Z,4.70
2023-09-04T18:14:43.171Z,3.90
2023-09-04T18:17:10.914Z,8.50
2023-09-04T18:19:38.713Z,4.90
2023-09-04T18:22:06.635Z,5.50
2023-09-04T18:24:34.462Z,5.40
2023-09-04T18:27:04.362Z,4.70
2023-09-04T18:29:32.173Z,3.90
2023-09-04T18:32:00.077Z,4.50
2023-09-04T18:34:27.961Z,5.20
2023-09-04T18:36:56.151Z,4.40
2023-09-04T18:39:23.980Z,4.10
2023-09-04T18:41:51.863Z,5.30
2023-09-04T18:44:20.534Z,5.10
2023-09-04T18:46:48.751Z,5.10
2023-09-04T18:49:16.572Z,6.10
2023-09-04T18:51:44.329Z,5.50
2023-09-04T18:54:12.153Z,7.60
2023-09-04T18:56:40.776Z,5.50
2023-09-04T18:59:09.354Z,5.30
2023-09-04T19:01:39.919Z,5.70
2023-09-04T19:04:07.687Z,6.10
2023-09-04T19:06:36.204Z,5.80
2023-09-04T19:09:04.309Z,5.70
2023-09-04T19:11:32.045Z,7.20
2023-09-04T19:13:59.838Z,5.10
2023-09-04T19:16:28.420Z,5.10
2023-09-04T19:18:56.341Z,6.40
2023-09-04T19:21:25.450Z,6.20
2023-09-04T19:23:53.345Z,5.50
2023-09-04T19:26:21.209Z,7.00
2023-09-04T19:28:51.648Z,5.80
2023-09-04T19:31:21.238Z,7.70
2023-09-04T19:33:51.025Z,6.50
2023-09-04T19:36:19.468Z,5.80
2023-09-04T19:38:47.284Z,6.60
2023-09-04T19:41:15.158Z,7.80
2023-09-04T19:43:42.914Z,5.80
2023-09-04T19:46:10.752Z,5.90
2023-09-04T19:48:38.597Z,5.80
2023-09-04T19:51:06.409Z,6.00
2023-09-04T19:53:34.330Z,7.20
2023-09-04T19:56:02.174Z,8.70
2023-09-04T19:58:29.971Z,6.60
2023-09-04T20:00:59.468Z,6.80
2023-09-04T20:03:27.541Z,6.40
2023-09-04T20:05:55.946Z,7.40
2023-09-04T20:08:23.885Z,7.30
2023-09-04T20:10:51.757Z,8.80
2023-09-04T20:13:19.687Z,8.20
2023-09-04T20:15:47.660Z,7.80
2023-09-04T20:18:15.472Z,8.00
2023-09-04T20:20:43.263Z,8.70
2023-09-04T20:23:11.079Z,7.40
2023-09-04T20:25:38.975Z,8.20
2023-09-04T20:28:07.226Z,9.50
2023-09-04T20:30:35.125Z,7.30
2023-09-04T20:33:04.032Z,9.10
2023-09-04T20:35:32.501Z,10.00
2023-09-04T20:38:00.286Z,10.40
2023-09-04T20:40:29.782Z,9.40
2023-09-04T20:42:57.782Z,7.80
2023-09-04T20:45:25.636Z,8.50
2023-09-04T20:47:53.613Z,7.90
2023-09-04T20:50:21.662Z,7.60
2023-09-04T20:52:49.467Z,8.10
2023-09-04T20:55:17.408Z,8.10
2023-09-04T20:57:45.181Z,7.40
2023-09-04T21:00:14.358Z,7.30
2023-09-04T21:02:43.292Z,7.90
2023-09-04T21:05:11.172Z,7.90
2023-09-04T21:07:38.827Z,7.30
2023-09-04T21:10:07.964Z,7.70
2023-09-04T21:12:54.834Z,8.50
2023-09-04T21:15:41.724Z,8.60
2023-09-04T21:18:28.342Z,7.00
2023-09-04T21:21:14.584Z,7.20
2023-09-04T21:24:00.936Z,6.70
2023-09-04T21:26:47.346Z,7.20
2023-09-04T21:29:33.631Z,7.40
2023-09-04T21:32:19.815Z,9.80
2023-09-04T21:35:07.180Z,8.50
2023-09-04T21:37:53.921Z,7.50
2023-09-04T21:40:40.247Z,8.20
2023-09-04T21:43:26.671Z,7.30
2023-09-04T21:46:13.546Z,8.20
2023-09-04T21:48:59.767Z,8.90
2023-09-04T21:51:46.173Z,8.90
2023-09-04T21:54:32.479Z,7.50
2023-09-04T21:57:18.808Z,7.20
2023-09-04T22:00:05.095Z,9.90
2023-09-04T22:02:52.068Z,10.00
2023-09-04T22:05:38.469Z,7.50
2023-09-04T22:08:24.851Z,11.00
2023-09-04T22:11:10.956Z,8.50
2023-09-04T22:13:57.228Z,9.00
2023-09-04T22:16:59.184Z,9.30
2023-09-04T22:19:49.780Z,9.40
2023-09-04T22:22:36.041Z,9.40
2023-09-04T22:25:22.901Z,10.80
2023-09-04T22:28:09.290Z,10.60
2023-09-04T22:30:56.640Z,10.70
2023-09-04T22:33:43.068Z,10.60
2023-09-04T22:36:29.469Z,10.80
2023-09-04T22:39:15.845Z,11.80
2023-09-04T22:42:02.352Z,11.80
2023-09-04T22:44:48.941Z,11.80
2023-09-04T22:47:35.365Z,13.50
2023-09-04T22:50:21.738Z,13.30
2023-09-04T22:53:08.473Z,13.80
2023-09-04T22:55:55.212Z,14.30
2023-09-04T22:58:41.796Z,15.50
2023-09-04T23:01:30.049Z,14.70
2023-09-04T23:04:16.268Z,16.70
2023-09-04T23:07:03.201Z,16.30
2023-09-04T23:09:49.805Z,16.00
2023-09-04T23:12:36.202Z,16.10
2023-09-04T23:15:23.589Z,16.70
2023-09-04T23:18:09.849Z,18.60
2023-09-04T23:20:56.140Z,17.20
2023-09-04T23:23:25.357Z,16.60
2023-09-04T23:25:54.968Z,15.90
2023-09-04T23:28:23.719Z,16.00
2023-09-04T23:30:56.382Z,17.30
2023-09-04T23:33:39.018Z,18.00
2023-09-04T23:36:36.613Z,18.10
2023-09-04T23:39:20.448Z,16.50
2023-09-04T23:42:06.923Z,20.00
2023-09-04T23:44:53.315Z,15.90
2023-09-04T23:47:22.393Z,18.80
2023-09-04T23:49:52.029Z,17.30
2023-09-04T23:52:19.840Z,17.20
2023-09-04T23:54:47.597Z,18.10
2023-09-04T23:57:15.827Z,18.40
2023-09-04T23:59:43.606Z,18.50
